sensor_id;sensor_type;location;lat;lon;timestamp;P1;durP1;ratioP1;P2;durP2;ratioP2
84687;SDS011;74908;42.040;21.322;2024-02-26T00:01:46;20.25;;;11.40;;
84687;SDS011;74908;42.040;21.322;2024-02-26T00:04:12;17.30;;;10.65;;
84687;SDS011;74908;42.040;21.322;2024-02-26T00:06:39;20.52;;;10.80;;
84687;SDS011;74908;42.040;21.322;2024-02-26T00:09:08;18.35;;;10.63;;
84687;SDS011;74908;42.040;21.322;2024-02-26T00:11:37;18.52;;;10.35;;
84687;SDS011;74908;42.040;21.322;2024-02-26T00:14:04;20.08;;;11.68;;
84687;SDS011;74908;42.040;21.322;2024-02-26T00:16:30;19.55;;;11.55;;
84687;SDS011;74908;42.040;21.322;2024-02-26T00:18:57;18.63;;;11.43;;
84687;SDS011;74908;42.040;21.322;2024-02-26T00:21:23;24.48;;;13.40;;
84687;SDS011;74908;42.040;21.322;2024-02-26T00:23:49;21.70;;;11.90;;
84687;SDS011;74908;42.040;21.322;2024-02-26T00:26:18;22.75;;;12.77;;
84687;SDS011;74908;42.040;21.322;2024-02-26T00:28:44;25.83;;;12.27;;
84687;SDS011;74908;42.040;21.322;2024-02-26T00:31:10;22.85;;;12.60;;
84687;SDS011;74908;42.040;21.322;2024-02-26T00:33:37;23.05;;;12.52;;
84687;SDS011;74908;42.040;21.322;2024-02-26T00:36:03;21.80;;;12.95;;
84687;SDS011;74908;42.040;21.322;2024-02-26T00:38:29;25.55;;;11.75;;
84687;SDS011;74908;42.040;21.322;2024-02-26T00:40:55;21.92;;;12.52;;
84687;SDS011;74908;42.040;21.322;2024-02-26T00:43:22;24.63;;;12.95;;
84687;SDS011;74908;42.040;21.322;2024-02-26T00:45:48;19.80;;;11.18;;
84687;SDS011;74908;42.040;21.322;2024-02-26T00:48:14;24.80;;;13.30;;
84687;SDS011;74908;42.040;21.322;2024-02-26T00:50:40;22.95;;;13.18;;
84687;SDS011;74908;42.040;21.322;2024-02-26T00:53:08;23.00;;;11.60;;
84687;SDS011;74908;42.040;21.322;2024-02-26T00:55:34;17.85;;;11.20;;
84687;SDS011;74908;42.040;21.322;2024-02-26T00:58:00;25.05;;;12.63;;
84687;SDS011;74908;42.040;21.322;2024-02-26T01:00:26;21.23;;;12.35;;
84687;SDS011;74908;42.040;21.322;2024-02-26T01:02:52;24.85;;;12.32;;
84687;SDS011;74908;42.040;21.322;2024-02-26T01:05:18;21.52;;;10.98;;
84687;SDS011;74908;42.040;21.322;2024-02-26T01:07:45;20.83;;;11.07;;
84687;SDS011;74908;42.040;21.322;2024-02-26T01:10:11;22.80;;;11.48;;
84687;SDS011;74908;42.040;21.322;2024-02-26T01:12:37;19.55;;;11.32;;
84687;SDS011;74908;42.040;21.322;2024-02-26T01:15:03;24.10;;;12.48;;
84687;SDS011;74908;42.040;21.322;2024-02-26T01:17:29;16.80;;;10.20;;
84687;SDS011;74908;42.040;21.322;2024-02-26T01:19:56;18.15;;;11.18;;
84687;SDS011;74908;42.040;21.322;2024-02-26T01:22:22;18.40;;;11.45;;
84687;SDS011;74908;42.040;21.322;2024-02-26T01:24:48;20.17;;;10.80;;
84687;SDS011;74908;42.040;21.322;2024-02-26T01:27:14;20.95;;;11.07;;
84687;SDS011;74908;42.040;21.322;2024-02-26T01:29:41;21.08;;;10.90;;
84687;SDS011;74908;42.040;21.322;2024-02-26T01:32:07;23.38;;;10.93;;
84687;SDS011;74908;42.040;21.322;2024-02-26T01:34:33;21.27;;;10.77;;
84687;SDS011;74908;42.040;21.322;2024-02-26T01:36:59;19.48;;;10.57;;
84687;SDS011;74908;42.040;21.322;2024-02-26T01:39:26;18.17;;;10.35;;
84687;SDS011;74908;42.040;21.322;2024-02-26T01:41:54;20.60;;;10.65;;
84687;SDS011;74908;42.040;21.322;2024-02-26T01:44:21;22.40;;;10.60;;
84687;SDS011;74908;42.040;21.322;2024-02-26T01:46:47;17.63;;;9.98;;
84687;SDS011;74908;42.040;21.322;2024-02-26T01:49:14;18.10;;;9.45;;
84687;SDS011;74908;42.040;21.322;2024-02-26T01:51:41;16.70;;;9.05;;
84687;SDS011;74908;42.040;21.322;2024-02-26T01:54:08;14.45;;;8.80;;
84687;SDS011;74908;42.040;21.322;2024-02-26T01:56:34;17.17;;;9.73;;
84687;SDS011;74908;42.040;21.322;2024-02-26T01:59:01;19.85;;;9.48;;
84687;SDS011;74908;42.040;21.322;2024-02-26T02:01:29;16.25;;;9.23;;
84687;SDS011;74908;42.040;21.322;2024-02-26T02:03:59;18.73;;;9.68;;
84687;SDS011;74908;42.040;21.322;2024-02-26T02:06:25;18.05;;;10.23;;
84687;SDS011;74908;42.040;21.322;2024-02-26T02:08:54;15.90;;;8.73;;
84687;SDS011;74908;42.040;21.322;2024-02-26T02:11:20;17.90;;;9.45;;
84687;SDS011;74908;42.040;21.322;2024-02-26T02:13:46;22.23;;;9.70;;
84687;SDS011;74908;42.040;21.322;2024-02-26T02:16:13;16.50;;;10.13;;
84687;SDS011;74908;42.040;21.322;2024-02-26T02:18:39;17.23;;;9.23;;
84687;SDS011;74908;42.040;21.322;2024-02-26T02:21:05;17.95;;;9.55;;
84687;SDS011;74908;42.040;21.322;2024-02-26T02:23:31;17.63;;;7.82;;
84687;SDS011;74908;42.040;21.322;2024-02-26T02:25:57;14.60;;;8.15;;
84687;SDS011;74908;42.040;21.322;2024-02-26T02:28:25;18.50;;;8.48;;
84687;SDS011;74908;42.040;21.322;2024-02-26T02:30:51;16.58;;;9.30;;
84687;SDS011;74908;42.040;21.322;2024-02-26T02:33:18;14.48;;;8.30;;
84687;SDS011;74908;42.040;21.322;2024-02-26T02:35:44;17.52;;;8.38;;
84687;SDS011;74908;42.040;21.322;2024-02-26T02:38:11;18.08;;;8.88;;
84687;SDS011;74908;42.040;21.322;2024-02-26T02:40:37;15.70;;;8.73;;
84687;SDS011;74908;42.040;21.322;2024-02-26T02:43:03;15.00;;;7.75;;
84687;SDS011;74908;42.040;21.322;2024-02-26T02:45:29;14.73;;;7.97;;
84687;SDS011;74908;42.040;21.322;2024-02-26T02:47:56;17.77;;;8.45;;
84687;SDS011;74908;42.040;21.322;2024-02-26T02:50:22;17.55;;;9.07;;
84687;SDS011;74908;42.040;21.322;2024-02-26T02:52:48;14.10;;;8.20;;
84687;SDS011;74908;42.040;21.322;2024-02-26T02:55:15;17.30;;;7.90;;
84687;SDS011;74908;42.040;21.322;2024-02-26T02:57:41;18.27;;;9.15;;
84687;SDS011;74908;42.040;21.322;2024-02-26T03:00:09;12.88;;;7.80;;
84687;SDS011;74908;42.040;21.322;2024-02-26T03:02:36;20.25;;;9.10;;
84687;SDS011;74908;42.040;21.322;2024-02-26T03:05:05;20.05;;;8.98;;
84687;SDS011;74908;42.040;21.322;2024-02-26T03:07:31;15.23;;;8.40;;
84687;SDS011;74908;42.040;21.322;2024-02-26T03:09:57;17.75;;;9.43;;
84687;SDS011;74908;42.040;21.322;2024-02-26T03:12:23;15.77;;;8.77;;
84687;SDS011;74908;42.040;21.322;2024-02-26T03:14:50;15.32;;;8.02;;
84687;SDS011;74908;42.040;21.322;2024-02-26T03:17:16;13.40;;;7.93;;
84687;SDS011;74908;42.040;21.322;2024-02-26T03:19:43;17.35;;;8.63;;
84687;SDS011;74908;42.040;21.322;2024-02-26T03:22:18;14.98;;;8.05;;
84687;SDS011;74908;42.040;21.322;2024-02-26T03:24:45;15.88;;;8.63;;
84687;SDS011;74908;42.040;21.322;2024-02-26T03:27:11;16.65;;;9.07;;
84687;SDS011;74908;42.040;21.322;2024-02-26T03:29:37;19.35;;;10.00;;
84687;SDS011;74908;42.040;21.322;2024-02-26T03:32:04;15.43;;;8.25;;
84687;SDS011;74908;42.040;21.322;2024-02-26T03:34:31;18.65;;;8.25;;
84687;SDS011;74908;42.040;21.322;2024-02-26T03:36:59;13.90;;;7.95;;
84687;SDS011;74908;42.040;21.322;2024-02-26T03:39:26;20.30;;;9.00;;
84687;SDS011;74908;42.040;21.322;2024-02-26T03:41:52;14.95;;;8.52;;
84687;SDS011;74908;42.040;21.322;2024-02-26T03:44:19;17.00;;;8.27;;
84687;SDS011;74908;42.040;21.322;2024-02-26T03:46:45;15.98;;;7.72;;
84687;SDS011;74908;42.040;21.322;2024-02-26T03:49:12;12.30;;;7.68;;
84687;SDS011;74908;42.040;21.322;2024-02-26T03:51:38;12.23;;;7.22;;
84687;SDS011;74908;42.040;21.322;2024-02-26T03:54:04;13.48;;;6.68;;
84687;SDS011;74908;42.040;21.322;2024-02-26T03:56:30;10.50;;;5.35;;
84687;SDS011;74908;42.040;21.322;2024-02-26T03:58:57;13.73;;;8.10;;
84687;SDS011;74908;42.040;21.322;2024-02-26T04:01:24;15.63;;;8.18;;
84687;SDS011;74908;42.040;21.322;2024-02-26T04:03:51;19.60;;;9.88;;
84687;SDS011;74908;42.040;21.322;2024-02-26T04:06:18;19.90;;;8.75;;
84687;SDS011;74908;42.040;21.322;2024-02-26T04:08:46;20.67;;;9.27;;
84687;SDS011;74908;42.040;21.322;2024-02-26T04:11:12;16.10;;;9.07;;
84687;SDS011;74908;42.040;21.322;2024-02-26T04:13:43;20.45;;;9.57;;
84687;SDS011;74908;42.040;21.322;2024-02-26T04:16:14;18.23;;;9.80;;
84687;SDS011;74908;42.040;21.322;2024-02-26T04:18:41;18.02;;;9.02;;
84687;SDS011;74908;42.040;21.322;2024-02-26T04:21:07;18.98;;;8.45;;
84687;SDS011;74908;42.040;21.322;2024-02-26T04:23:34;14.88;;;7.93;;
84687;SDS011;74908;42.040;21.322;2024-02-26T04:26:00;14.60;;;8.30;;
84687;SDS011;74908;42.040;21.322;2024-02-26T04:28:26;17.00;;;8.60;;
84687;SDS011;74908;42.040;21.322;2024-02-26T04:30:54;16.60;;;7.93;;
84687;SDS011;74908;42.040;21.322;2024-02-26T04:33:20;21.60;;;8.40;;
84687;SDS011;74908;42.040;21.322;2024-02-26T04:35:47;16.40;;;8.45;;
84687;SDS011;74908;42.040;21.322;2024-02-26T04:38:13;15.70;;;8.40;;
84687;SDS011;74908;42.040;21.322;2024-02-26T04:40:39;14.48;;;7.88;;
84687;SDS011;74908;42.040;21.322;2024-02-26T04:43:05;16.02;;;7.13;;
84687;SDS011;74908;42.040;21.322;2024-02-26T04:45:31;14.07;;;8.38;;
84687;SDS011;74908;42.040;21.322;2024-02-26T04:47:57;15.82;;;8.27;;
84687;SDS011;74908;42.040;21.322;2024-02-26T04:50:24;16.15;;;8.70;;
84687;SDS011;74908;42.040;21.322;2024-02-26T04:52:50;14.60;;;7.65;;
84687;SDS011;74908;42.040;21.322;2024-02-26T04:55:16;17.20;;;8.18;;
84687;SDS011;74908;42.040;21.322;2024-02-26T04:57:42;16.45;;;7.90;;
84687;SDS011;74908;42.040;21.322;2024-02-26T05:00:08;13.98;;;6.60;;
84687;SDS011;74908;42.040;21.322;2024-02-26T05:02:34;15.32;;;7.93;;
84687;SDS011;74908;42.040;21.322;2024-02-26T05:05:04;17.15;;;8.27;;
84687;SDS011;74908;42.040;21.322;2024-02-26T05:07:30;21.23;;;10.82;;
84687;SDS011;74908;42.040;21.322;2024-02-26T05:09:57;18.10;;;9.93;;
84687;SDS011;74908;42.040;21.322;2024-02-26T05:12:24;17.85;;;10.48;;
84687;SDS011;74908;42.040;21.322;2024-02-26T05:14:50;19.55;;;10.43;;
84687;SDS011;74908;42.040;21.322;2024-02-26T05:17:16;24.23;;;12.35;;
84687;SDS011;74908;42.040;21.322;2024-02-26T05:19:42;24.73;;;12.20;;
84687;SDS011;74908;42.040;21.322;2024-02-26T05:22:08;23.80;;;13.38;;
84687;SDS011;74908;42.040;21.322;2024-02-26T05:24:37;23.65;;;13.48;;
84687;SDS011;74908;42.040;21.322;2024-02-26T05:27:03;22.58;;;11.82;;
84687;SDS011;74908;42.040;21.322;2024-02-26T05:29:30;20.92;;;11.43;;
84687;SDS011;74908;42.040;21.322;2024-02-26T05:31:56;22.20;;;12.20;;
84687;SDS011;74908;42.040;21.322;2024-02-26T05:34:22;25.70;;;11.70;;
84687;SDS011;74908;42.040;21.322;2024-02-26T05:36:48;20.58;;;12.27;;
84687;SDS011;74908;42.040;21.322;2024-02-26T05:39:14;22.35;;;11.93;;
84687;SDS011;74908;42.040;21.322;2024-02-26T05:41:41;22.58;;;10.25;;
84687;SDS011;74908;42.040;21.322;2024-02-26T05:44:08;17.58;;;9.43;;
84687;SDS011;74908;42.040;21.322;2024-02-26T05:46:36;23.35;;;10.30;;
84687;SDS011;74908;42.040;21.322;2024-02-26T05:49:03;18.15;;;8.65;;
84687;SDS011;74908;42.040;21.322;2024-02-26T05:51:29;18.88;;;9.43;;
84687;SDS011;74908;42.040;21.322;2024-02-26T05:53:56;16.25;;;8.38;;
84687;SDS011;74908;42.040;21.322;2024-02-26T05:56:23;17.25;;;8.55;;
84687;SDS011;74908;42.040;21.322;2024-02-26T05:58:49;17.40;;;7.90;;
84687;SDS011;74908;42.040;21.322;2024-02-26T06:01:19;16.15;;;8.15;;
84687;SDS011;74908;42.040;21.322;2024-02-26T06:03:45;13.27;;;8.25;;
84687;SDS011;74908;42.040;21.322;2024-02-26T06:06:11;15.05;;;7.88;;
84687;SDS011;74908;42.040;21.322;2024-02-26T06:08:40;14.73;;;7.97;;
84687;SDS011;74908;42.040;21.322;2024-02-26T06:11:06;13.52;;;7.70;;
84687;SDS011;74908;42.040;21.322;2024-02-26T06:13:33;14.38;;;6.75;;
84687;SDS011;74908;42.040;21.322;2024-02-26T06:15:59;13.40;;;6.97;;
84687;SDS011;74908;42.040;21.322;2024-02-26T06:18:26;14.45;;;5.57;;
84687;SDS011;74908;42.040;21.322;2024-02-26T06:20:52;13.00;;;6.32;;
84687;SDS011;74908;42.040;21.322;2024-02-26T06:23:19;12.88;;;6.55;;
84687;SDS011;74908;42.040;21.322;2024-02-26T06:25:46;17.48;;;8.10;;
84687;SDS011;74908;42.040;21.322;2024-02-26T06:28:13;13.60;;;6.78;;
84687;SDS011;74908;42.040;21.322;2024-02-26T06:30:39;14.40;;;7.15;;
84687;SDS011;74908;42.040;21.322;2024-02-26T06:33:05;15.85;;;7.95;;
84687;SDS011;74908;42.040;21.322;2024-02-26T06:35:33;15.70;;;8.63;;
84687;SDS011;74908;42.040;21.322;2024-02-26T06:37:59;14.35;;;8.20;;
84687;SDS011;74908;42.040;21.322;2024-02-26T06:40:26;16.45;;;7.68;;
84687;SDS011;74908;42.040;21.322;2024-02-26T06:42:52;12.85;;;6.75;;
84687;SDS011;74908;42.040;21.322;2024-02-26T06:45:19;15.00;;;7.40;;
84687;SDS011;74908;42.040;21.322;2024-02-26T06:47:46;16.67;;;8.00;;
84687;SDS011;74908;42.040;21.322;2024-02-26T06:50:12;16.83;;;10.23;;
84687;SDS011;74908;42.040;21.322;2024-02-26T06:52:39;24.08;;;11.32;;
84687;SDS011;74908;42.040;21.322;2024-02-26T06:55:05;24.17;;;12.15;;
84687;SDS011;74908;42.040;21.322;2024-02-26T06:57:33;21.33;;;12.15;;
84687;SDS011;74908;42.040;21.322;2024-02-26T06:59:59;21.80;;;11.32;;
84687;SDS011;74908;42.040;21.322;2024-02-26T07:02:28;22.20;;;12.27;;
84687;SDS011;74908;42.040;21.322;2024-02-26T07:04:54;19.95;;;11.05;;
84687;SDS011;74908;42.040;21.322;2024-02-26T07:07:23;20.33;;;10.65;;
84687;SDS011;74908;42.040;21.322;2024-02-26T07:09:49;19.77;;;11.30;;
84687;SDS011;74908;42.040;21.322;2024-02-26T07:12:15;19.40;;;10.63;;
84687;SDS011;74908;42.040;21.322;2024-02-26T07:14:41;14.75;;;7.78;;
84687;SDS011;74908;42.040;21.322;2024-02-26T07:17:08;15.80;;;8.75;;
84687;SDS011;74908;42.040;21.322;2024-02-26T07:19:34;11.15;;;7.10;;
84687;SDS011;74908;42.040;21.322;2024-02-26T07:22:00;11.55;;;7.40;;
84687;SDS011;74908;42.040;21.322;2024-02-26T07:24:27;13.35;;;7.03;;
84687;SDS011;74908;42.040;21.322;2024-02-26T07:26:53;10.07;;;5.80;;
84687;SDS011;74908;42.040;21.322;2024-02-26T07:29:20;6.95;;;4.78;;
84687;SDS011;74908;42.040;21.322;2024-02-26T07:31:46;6.60;;;4.85;;
84687;SDS011;74908;42.040;21.322;2024-02-26T07:34:13;8.07;;;5.25;;
84687;SDS011;74908;42.040;21.322;2024-02-26T07:36:39;8.98;;;4.45;;
84687;SDS011;74908;42.040;21.322;2024-02-26T07:39:05;8.38;;;4.68;;
84687;SDS011;74908;42.040;21.322;2024-02-26T07:41:31;7.68;;;4.25;;
84687;SDS011;74908;42.040;21.322;2024-02-26T07:43:58;9.88;;;4.45;;
84687;SDS011;74908;42.040;21.322;2024-02-26T07:46:24;8.38;;;4.90;;
84687;SDS011;74908;42.040;21.322;2024-02-26T07:48:50;6.32;;;4.45;;
84687;SDS011;74908;42.040;21.322;2024-02-26T07:51:16;7.10;;;4.82;;
84687;SDS011;74908;42.040;21.322;2024-02-26T07:53:42;8.35;;;6.03;;
84687;SDS011;74908;42.040;21.322;2024-02-26T07:56:09;8.50;;;6.22;;
84687;SDS011;74908;42.040;21.322;2024-02-26T07:58:35;13.25;;;5.47;;
84687;SDS011;74908;42.040;21.322;2024-02-26T08:01:01;11.02;;;6.07;;
84687;SDS011;74908;42.040;21.322;2024-02-26T08:03:27;9.07;;;5.47;;
84687;SDS011;74908;42.040;21.322;2024-02-26T08:05:53;11.30;;;5.90;;
84687;SDS011;74908;42.040;21.322;2024-02-26T08:08:20;6.53;;;4.72;;
84687;SDS011;74908;42.040;21.322;2024-02-26T08:10:46;9.98;;;5.60;;
84687;SDS011;74908;42.040;21.322;2024-02-26T08:13:12;10.18;;;6.65;;
84687;SDS011;74908;42.040;21.322;2024-02-26T08:15:38;14.48;;;6.82;;
84687;SDS011;74908;42.040;21.322;2024-02-26T08:18:05;10.80;;;5.75;;
84687;SDS011;74908;42.040;21.322;2024-02-26T08:20:31;9.45;;;5.63;;
84687;SDS011;74908;42.040;21.322;2024-02-26T08:22:57;10.52;;;5.78;;
84687;SDS011;74908;42.040;21.322;2024-02-26T08:25:23;8.93;;;5.40;;
84687;SDS011;74908;42.040;21.322;2024-02-26T08:27:50;9.75;;;5.50;;
84687;SDS011;74908;42.040;21.322;2024-02-26T08:30:16;9.43;;;5.65;;
84687;SDS011;74908;42.040;21.322;2024-02-26T08:32:43;13.43;;;6.80;;
84687;SDS011;74908;42.040;21.322;2024-02-26T08:35:09;12.43;;;6.25;;
84687;SDS011;74908;42.040;21.322;2024-02-26T08:37:36;10.90;;;6.00;;
84687;SDS011;74908;42.040;21.322;2024-02-26T08:40:02;11.73;;;6.57;;
84687;SDS011;74908;42.040;21.322;2024-02-26T08:42:29;11.82;;;6.25;;
84687;SDS011;74908;42.040;21.322;2024-02-26T08:44:55;12.85;;;6.72;;
84687;SDS011;74908;42.040;21.322;2024-02-26T08:47:21;12.38;;;7.38;;
84687;SDS011;74908;42.040;21.322;2024-02-26T08:49:48;10.77;;;6.47;;
84687;SDS011;74908;42.040;21.322;2024-02-26T08:52:14;10.18;;;6.88;;
84687;SDS011;74908;42.040;21.322;2024-02-26T08:54:40;7.53;;;5.78;;
84687;SDS011;74908;42.040;21.322;2024-02-26T08:57:06;6.78;;;3.60;;
84687;SDS011;74908;42.040;21.322;2024-02-26T08:59:33;5.53;;;3.63;;
84687;SDS011;74908;42.040;21.322;2024-02-26T09:01:59;5.65;;;3.60;;
84687;SDS011;74908;42.040;21.322;2024-02-26T09:04:25;8.77;;;4.03;;
84687;SDS011;74908;42.040;21.322;2024-02-26T09:06:52;7.80;;;4.57;;
84687;SDS011;74908;42.040;21.322;2024-02-26T09:09:19;9.40;;;4.65;;
84687;SDS011;74908;42.040;21.322;2024-02-26T09:11:45;10.07;;;4.80;;
84687;SDS011;74908;42.040;21.322;2024-02-26T09:14:12;12.40;;;5.03;;
84687;SDS011;74908;42.040;21.322;2024-02-26T09:16:38;8.40;;;4.78;;
84687;SDS011;74908;42.040;21.322;2024-02-26T09:19:04;7.05;;;4.00;;
84687;SDS011;74908;42.040;21.322;2024-02-26T09:21:30;6.90;;;5.28;;
84687;SDS011;74908;42.040;21.322;2024-02-26T09:23:56;5.88;;;4.55;;
84687;SDS011;74908;42.040;21.322;2024-02-26T09:26:22;10.73;;;4.93;;
84687;SDS011;74908;42.040;21.322;2024-02-26T09:28:49;9.50;;;4.82;;
84687;SDS011;74908;42.040;21.322;2024-02-26T09:31:15;13.02;;;5.32;;
84687;SDS011;74908;42.040;21.322;2024-02-26T09:33:42;9.57;;;4.72;;
84687;SDS011;74908;42.040;21.322;2024-02-26T09:36:08;16.73;;;5.65;;
84687;SDS011;74908;42.040;21.322;2024-02-26T09:38:36;10.82;;;5.72;;
84687;SDS011;74908;42.040;21.322;2024-02-26T09:41:06;9.57;;;5.18;;
84687;SDS011;74908;42.040;21.322;2024-02-26T09:43:34;10.07;;;5.38;;
84687;SDS011;74908;42.040;21.322;2024-02-26T09:46:01;12.38;;;5.53;;
84687;SDS011;74908;42.040;21.322;2024-02-26T09:48:28;7.88;;;4.80;;
84687;SDS011;74908;42.040;21.322;2024-02-26T09:50:55;8.02;;;4.43;;
84687;SDS011;74908;42.040;21.322;2024-02-26T09:53:21;10.70;;;5.85;;
84687;SDS011;74908;42.040;21.322;2024-02-26T09:55:48;12.85;;;5.57;;
84687;SDS011;74908;42.040;21.322;2024-02-26T09:58:14;9.02;;;6.10;;
84687;SDS011;74908;42.040;21.322;2024-02-26T10:00:43;8.30;;;5.53;;
84687;SDS011;74908;42.040;21.322;2024-02-26T10:03:13;9.88;;;6.07;;
84687;SDS011;74908;42.040;21.322;2024-02-26T10:05:41;15.95;;;6.35;;
84687;SDS011;74908;42.040;21.322;2024-02-26T10:08:10;9.95;;;6.00;;
84687;SDS011;74908;42.040;21.322;2024-02-26T10:10:38;8.68;;;5.68;;
84687;SDS011;74908;42.040;21.322;2024-02-26T10:13:04;11.93;;;6.53;;
84687;SDS011;74908;42.040;21.322;2024-02-26T10:15:35;9.75;;;6.82;;
84687;SDS011;74908;42.040;21.322;2024-02-26T10:18:05;10.90;;;6.43;;
84687;SDS011;74908;42.040;21.322;2024-02-26T10:20:31;8.55;;;4.95;;
84687;SDS011;74908;42.040;21.322;2024-02-26T10:22:58;7.18;;;4.82;;
84687;SDS011;74908;42.040;21.322;2024-02-26T10:25:24;10.18;;;6.13;;
84687;SDS011;74908;42.040;21.322;2024-02-26T10:27:51;16.88;;;6.05;;
84687;SDS011;74908;42.040;21.322;2024-02-26T10:30:18;8.30;;;4.15;;
84687;SDS011;74908;42.040;21.322;2024-02-26T10:32:46;8.07;;;4.45;;
84687;SDS011;74908;42.040;21.322;2024-02-26T10:35:15;7.70;;;4.85;;
84687;SDS011;74908;42.040;21.322;2024-02-26T10:37:43;5.85;;;3.72;;
84687;SDS011;74908;42.040;21.322;2024-02-26T10:40:13;5.82;;;3.28;;
84687;SDS011;74908;42.040;21.322;2024-02-26T10:45:06;7.43;;;4.43;;
84687;SDS011;74908;42.040;21.322;2024-02-26T10:47:34;6.15;;;3.88;;
84687;SDS011;74908;42.040;21.322;2024-02-26T10:50:04;10.85;;;4.20;;
84687;SDS011;74908;42.040;21.322;2024-02-26T10:52:34;5.38;;;2.92;;
84687;SDS011;74908;42.040;21.322;2024-02-26T10:55:01;7.80;;;3.75;;
84687;SDS011;74908;42.040;21.322;2024-02-26T10:57:50;7.10;;;4.05;;
84687;SDS011;74908;42.040;21.322;2024-02-26T11:00:15;9.15;;;4.10;;
84687;SDS011;74908;42.040;21.322;2024-02-26T11:02:41;7.25;;;3.70;;
84687;SDS011;74908;42.040;21.322;2024-02-26T11:05:07;5.35;;;3.53;;
84687;SDS011;74908;42.040;21.322;2024-02-26T11:07:34;6.70;;;3.25;;
84687;SDS011;74908;42.040;21.322;2024-02-26T11:10:04;5.40;;;3.20;;
84687;SDS011;74908;42.040;21.322;2024-02-26T11:15:01;7.43;;;3.95;;
84687;SDS011;74908;42.040;21.322;2024-02-26T11:17:28;6.28;;;3.20;;
84687;SDS011;74908;42.040;21.322;2024-02-26T11:19:57;10.13;;;3.83;;
84687;SDS011;74908;42.040;21.322;2024-02-26T11:22:24;8.15;;;4.93;;
84687;SDS011;74908;42.040;21.322;2024-02-26T11:24:52;8.20;;;4.93;;
84687;SDS011;74908;42.040;21.322;2024-02-26T11:27:19;8.63;;;4.70;;
84687;SDS011;74908;42.040;21.322;2024-02-26T11:29:48;4.38;;;3.05;;
84687;SDS011;74908;42.040;21.322;2024-02-26T11:32:17;6.32;;;3.45;;
84687;SDS011;74908;42.040;21.322;2024-02-26T11:34:43;8.23;;;3.20;;
84687;SDS011;74908;42.040;21.322;2024-02-26T11:37:10;5.90;;;3.38;;
84687;SDS011;74908;42.040;21.322;2024-02-26T11:39:37;4.57;;;3.22;;
84687;SDS011;74908;42.040;21.322;2024-02-26T11:42:10;5.70;;;3.78;;
84687;SDS011;74908;42.040;21.322;2024-02-26T11:44:39;8.57;;;2.72;;
84687;SDS011;74908;42.040;21.322;2024-02-26T11:47:10;5.25;;;2.88;;
84687;SDS011;74908;42.040;21.322;2024-02-26T11:49:36;7.38;;;3.70;;
84687;SDS011;74908;42.040;21.322;2024-02-26T11:52:04;3.25;;;2.78;;
84687;SDS011;74908;42.040;21.322;2024-02-26T11:59:53;5.60;;;2.70;;
84687;SDS011;74908;42.040;21.322;2024-02-26T12:05:09;7.80;;;3.03;;
84687;SDS011;74908;42.040;21.322;2024-02-26T12:07:40;4.88;;;2.67;;
84687;SDS011;74908;42.040;21.322;2024-02-26T12:15:33;4.70;;;3.30;;
84687;SDS011;74908;42.040;21.322;2024-02-26T12:18:01;6.72;;;3.10;;
84687;SDS011;74908;42.040;21.322;2024-02-26T12:20:27;7.65;;;3.50;;
84687;SDS011;74908;42.040;21.322;2024-02-26T12:22:53;4.68;;;3.15;;
84687;SDS011;74908;42.040;21.322;2024-02-26T12:25:22;7.85;;;3.38;;
84687;SDS011;74908;42.040;21.322;2024-02-26T12:27:48;3.83;;;2.97;;
84687;SDS011;74908;42.040;21.322;2024-02-26T12:30:14;7.35;;;2.88;;
84687;SDS011;74908;42.040;21.322;2024-02-26T12:32:40;6.15;;;3.40;;
84687;SDS011;74908;42.040;21.322;2024-02-26T12:35:07;5.18;;;3.53;;
84687;SDS011;74908;42.040;21.322;2024-02-26T12:37:33;5.00;;;3.63;;
84687;SDS011;74908;42.040;21.322;2024-02-26T12:40:03;5.88;;;2.85;;
84687;SDS011;74908;42.040;21.322;2024-02-26T12:42:30;3.72;;;3.25;;
84687;SDS011;74908;42.040;21.322;2024-02-26T12:44:57;5.47;;;3.00;;
84687;SDS011;74908;42.040;21.322;2024-02-26T12:47:23;5.03;;;2.70;;
84687;SDS011;74908;42.040;21.322;2024-02-26T12:49:49;4.40;;;3.28;;
84687;SDS011;74908;42.040;21.322;2024-02-26T12:52:16;8.45;;;3.33;;
84687;SDS011;74908;42.040;21.322;2024-02-26T12:54:42;4.65;;;3.20;;
84687;SDS011;74908;42.040;21.322;2024-02-26T12:57:08;8.07;;;3.45;;
84687;SDS011;74908;42.040;21.322;2024-02-26T12:59:35;4.13;;;3.00;;
84687;SDS011;74908;42.040;21.322;2024-02-26T13:02:02;5.40;;;3.10;;
84687;SDS011;74908;42.040;21.322;2024-02-26T13:04:29;6.43;;;3.10;;
84687;SDS011;74908;42.040;21.322;2024-02-26T13:06:56;6.32;;;3.20;;
84687;SDS011;74908;42.040;21.322;2024-02-26T13:09:28;7.60;;;3.22;;
84687;SDS011;74908;42.040;21.322;2024-02-26T13:11:55;6.18;;;3.17;;
84687;SDS011;74908;42.040;21.322;2024-02-26T13:14:21;5.82;;;2.67;;
84687;SDS011;74908;42.040;21.322;2024-02-26T13:16:57;6.97;;;3.70;;
84687;SDS011;74908;42.040;21.322;2024-02-26T13:19:23;9.57;;;4.75;;
84687;SDS011;74908;42.040;21.322;2024-02-26T13:21:50;7.85;;;4.07;;
84687;SDS011;74908;42.040;21.322;2024-02-26T13:24:16;5.45;;;3.83;;
84687;SDS011;74908;42.040;21.322;2024-02-26T13:26:45;6.68;;;3.17;;
84687;SDS011;74908;42.040;21.322;2024-02-26T13:29:20;8.38;;;3.33;;
84687;SDS011;74908;42.040;21.322;2024-02-26T13:31:46;6.38;;;4.00;;
84687;SDS011;74908;42.040;21.322;2024-02-26T13:34:25;9.55;;;4.97;;
84687;SDS011;74908;42.040;21.322;2024-02-26T13:36:52;9.55;;;5.32;;
84687;SDS011;74908;42.040;21.322;2024-02-26T13:39:26;11.20;;;5.43;;
84687;SDS011;74908;42.040;21.322;2024-02-26T13:41:52;13.35;;;6.38;;
84687;SDS011;74908;42.040;21.322;2024-02-26T13:44:21;7.20;;;5.55;;
84687;SDS011;74908;42.040;21.322;2024-02-26T13:46:47;10.02;;;5.45;;
84687;SDS011;74908;42.040;21.322;2024-02-26T13:49:14;11.00;;;5.65;;
84687;SDS011;74908;42.040;21.322;2024-02-26T13:51:40;8.77;;;5.25;;
84687;SDS011;74908;42.040;21.322;2024-02-26T13:54:07;11.65;;;6.00;;
84687;SDS011;74908;42.040;21.322;2024-02-26T13:56:35;7.82;;;5.47;;
84687;SDS011;74908;42.040;21.322;2024-02-26T13:59:02;9.35;;;5.82;;
84687;SDS011;74908;42.040;21.322;2024-02-26T14:01:28;8.60;;;6.07;;
84687;SDS011;74908;42.040;21.322;2024-02-26T14:03:55;8.65;;;6.00;;
84687;SDS011;74908;42.040;21.322;2024-02-26T14:06:22;6.68;;;4.72;;
84687;SDS011;74908;42.040;21.322;2024-02-26T14:08:48;9.55;;;6.20;;
84687;SDS011;74908;42.040;21.322;2024-02-26T14:11:15;12.20;;;6.47;;
84687;SDS011;74908;42.040;21.322;2024-02-26T14:13:41;10.93;;;6.65;;
84687;SDS011;74908;42.040;21.322;2024-02-26T14:16:07;12.55;;;7.75;;
84687;SDS011;74908;42.040;21.322;2024-02-26T14:18:35;13.23;;;8.20;;
84687;SDS011;74908;42.040;21.322;2024-02-26T14:21:01;10.00;;;5.93;;
84687;SDS011;74908;42.040;21.322;2024-02-26T14:23:28;11.65;;;6.80;;
84687;SDS011;74908;42.040;21.322;2024-02-26T14:25:54;11.07;;;6.55;;
84687;SDS011;74908;42.040;21.322;2024-02-26T14:28:20;10.93;;;6.38;;
84687;SDS011;74908;42.040;21.322;2024-02-26T14:30:46;13.70;;;6.82;;
84687;SDS011;74908;42.040;21.322;2024-02-26T14:33:12;11.05;;;7.47;;
84687;SDS011;74908;42.040;21.322;2024-02-26T14:35:38;11.73;;;8.70;;
84687;SDS011;74908;42.040;21.322;2024-02-26T14:38:04;12.40;;;8.63;;
84687;SDS011;74908;42.040;21.322;2024-02-26T14:40:30;14.50;;;8.27;;